Los Angeles, CA (90077)

11:52 PM PDT on July 30, 2015 (GMT -0700)
Upper Bel Air | | Change Station
CLOSE
Current Station
Personal Weather Station
Location: Bel Air, CA
Elevation: 1285 ft
Nearby Weather Stations

Elev 1285 ft 34.12 °N, 118.47 °W | Updated 8 seconds ago

Clear
Clear
69.8 °F
Feels Like 69.8 °F
N
0.0
Wind Variable Wind from South
Gusts 0.0 mph

Today
High -- | Low -- °F
--% Chance of Precip.
Yesterday
High -- | Low -- °F
Precip. -- in
6:03 AM 7:56 PM
Full, 100% visible
Pressure 30.03 in
Visibility 10.0 miles
Clouds Clear
Dew Point 61 °F
Humidity 74%
Rainfall 0.00 in
Snow Depth Not available.
UV 0 out of 12
Pollen 2.60 out of 12
Air Quality Not available.
Flu Activity Not available.
METAR KSMO 310551Z 00000KT 10SM CLR 21/18 A3003 RMK AO2 SLP167 T02110183 10239 20211 53015 $

More Conditions Fewer Conditions

Pressure 30.03 in
Visibility 10.0 miles
Clouds Clear
Dew Point 61 °F
Humidity 74%
Rainfall 0.00 in
Snow Depth Not available.
UV 0 out of 12
Pollen 2.60 out of 12
Air Quality Not available.
Flu Activity Not available.
METAR KSMO 310551Z 00000KT 10SM CLR 21/18 A3003 RMK AO2 SLP167 T02110183 10239 20211 53015 $

More Conditions Fewer Conditions

10-Day Weather Forecast

×

Almanac

Astronomy

Jul. 30, 2015 Rise Set
Actual Time
Civil Twilight
Nautical Twilight
Astronomical Twilight
Moon
Length of Visible Light
Length of Day
Tomorrow will be .
, % of the Moon is Illuminated

Today's Extremes

State Highs State Lows

Community

WunderPhotos

Upload Photos

1,842,634 photos uploaded!

WunderBlogs® & News

Nearby

Air Quality

  Air Quality AQ Index Pollutant
Not available.

Snow Depth

Station Depth Elevation

Earthquake Activity

City Distance Mag. Time & Date
Minimum magnitude displayed is 2.5.

Coastal Water Temperatures

Place Temperature

Stations

Nearby Weather Stations

Station Location Temp. Windchill Dew Point Humidity Wind Precip. Elev Updated Type